Asheboro, North Carolina
Current Conditions -  °F | °C
As of 1:15 PM on Wednesday 28 Jan 2015 (Local Time) from KHBI Reporting Station
Haze Haze  
Wind Chill: 41°   Ceiling: 700
Heat Index: 41°   Visibility: 1mi
Dew Point: 14°   Wind: 3mph
Humidity: 34%   Direction: 10°N
Pressure: 30.25"   Gusts: NA
Location:  35.71°N, 79.81°W
Report Text: KHBI 281815Z AUTO 01003KT 1SM HZ VV007 05/M10 A3025 RMK AO2 T00481100
Loading
Personal Weather Stations






























Interactive Weather Map New forecast layout! Learn more

10-Day Weather Forecast

Advertisements
Track Severe Weather on mobile